createdAt,value
2022-12-02T00:01:41.063Z,55.80
2022-12-02T00:03:43.934Z,55.70
2022-12-02T00:05:49.230Z,55.76
2022-12-02T00:07:57.394Z,55.64
2022-12-02T00:09:59.753Z,55.72
2022-12-02T00:12:23.544Z,55.67
2022-12-02T00:14:34.985Z,56.00
2022-12-02T00:16:36.884Z,55.97
2022-12-02T00:18:38.548Z,56.03
2022-12-02T00:20:40.958Z,55.85
2022-12-02T00:22:44.000Z,56.02
2022-12-02T00:24:45.929Z,56.05
2022-12-02T00:26:47.604Z,56.04
2022-12-02T00:28:49.274Z,56.01
2022-12-02T00:30:50.861Z,55.77
2022-12-02T00:32:53.455Z,55.83
2022-12-02T00:34:55.729Z,55.88
2022-12-02T00:36:58.443Z,55.86
2022-12-02T00:39:00.286Z,55.78
2022-12-02T00:41:02.052Z,56.14
2022-12-02T00:43:22.552Z,55.92
2022-12-02T00:45:45.608Z,56.24
2022-12-02T00:47:47.175Z,55.96
2022-12-02T00:49:48.870Z,56.34
2022-12-02T00:51:50.733Z,56.09
2022-12-02T00:53:52.470Z,55.85
2022-12-02T00:55:53.938Z,56.20
2022-12-02T00:57:55.546Z,55.95
2022-12-02T00:59:57.296Z,56.14
2022-12-02T01:02:01.253Z,55.91
2022-12-02T01:04:03.491Z,55.89
2022-12-02T01:06:05.124Z,55.94
2022-12-02T01:08:06.845Z,55.80
2022-12-02T01:10:09.086Z,55.84
2022-12-02T01:12:11.650Z,55.77
2022-12-02T01:14:13.299Z,55.98
2022-12-02T01:16:16.050Z,55.89
2022-12-02T01:18:18.346Z,56.12
2022-12-02T01:20:20.065Z,56.00
2022-12-02T01:22:21.664Z,55.97
2022-12-02T01:24:23.526Z,55.79
2022-12-02T01:26:25.310Z,55.81
2022-12-02T01:28:26.812Z,55.91
2022-12-02T01:30:28.579Z,56.04
2022-12-02T01:32:30.946Z,55.91
2022-12-02T01:34:33.444Z,55.86
2022-12-02T01:36:35.210Z,56.03
2022-12-02T01:38:36.895Z,55.61
2022-12-02T01:40:38.815Z,55.78
2022-12-02T01:42:40.569Z,55.96
2022-12-02T01:44:42.317Z,56.07
2022-12-02T01:46:45.045Z,55.80
2022-12-02T01:48:49.347Z,56.04
2022-12-02T01:50:51.437Z,55.93
2022-12-02T01:52:58.101Z,55.94
2022-12-02T01:55:00.315Z,56.12
2022-12-02T01:57:02.246Z,56.06
2022-12-02T01:59:04.049Z,55.99
2022-12-02T02:01:22.759Z,56.11
2022-12-02T02:03:24.778Z,56.26
2022-12-02T02:05:31.249Z,56.10
2022-12-02T02:07:34.458Z,56.26
2022-12-02T02:09:36.174Z,56.08
2022-12-02T02:11:40.360Z,56.13
2022-12-02T02:13:42.111Z,56.08
2022-12-02T02:15:45.665Z,56.20
2022-12-02T02:17:48.708Z,56.23
2022-12-02T02:19:51.184Z,56.26
2022-12-02T02:21:55.552Z,56.37
2022-12-02T02:23:57.938Z,56.17
2022-12-02T02:26:00.480Z,55.96
2022-12-02T02:28:09.714Z,56.00
2022-12-02T02:30:12.648Z,56.08
2022-12-02T02:32:15.717Z,56.09
2022-12-02T02:34:17.363Z,55.95
2022-12-02T02:36:19.086Z,55.92
2022-12-02T02:38:26.441Z,56.20
2022-12-02T02:40:30.443Z,55.93
2022-12-02T02:42:33.463Z,56.15
2022-12-02T02:44:35.140Z,56.28
2022-12-02T02:46:37.334Z,55.94
2022-12-02T02:48:39.430Z,56.08
2022-12-02T02:50:44.555Z,55.71
2022-12-02T02:52:47.778Z,56.28
2022-12-02T02:54:49.546Z,56.27
2022-12-02T02:56:51.649Z,56.19
2022-12-02T02:58:53.742Z,56.03
2022-12-02T03:01:24.984Z,55.88
2022-12-02T03:03:30.014Z,56.14
2022-12-02T03:05:34.094Z,56.06
2022-12-02T03:07:37.069Z,56.14
2022-12-02T03:09:39.670Z,55.92
2022-12-02T03:11:43.907Z,56.35
2022-12-02T03:13:48.475Z,56.29
2022-12-02T03:15:50.197Z,56.39
2022-12-02T03:17:52.735Z,56.14
2022-12-02T03:19:54.885Z,56.28
2022-12-02T03:21:59.933Z,56.18
2022-12-02T03:24:06.235Z,56.00
2022-12-02T03:26:10.977Z,56.10
2022-12-02T03:28:13.029Z,56.14
2022-12-02T03:30:18.338Z,56.32
2022-12-02T03:32:20.901Z,56.17
2022-12-02T03:34:22.787Z,56.40
2022-12-02T03:36:25.233Z,56.03
2022-12-02T03:38:27.975Z,56.11
2022-12-02T03:40:30.319Z,55.91
2022-12-02T03:42:32.236Z,56.00
2022-12-02T03:44:34.033Z,56.12
2022-12-02T03:46:36.575Z,56.21
2022-12-02T03:48:39.570Z,56.09
2022-12-02T03:50:41.785Z,56.33
2022-12-02T03:52:43.596Z,56.12
2022-12-02T03:54:50.521Z,56.28
2022-12-02T03:56:55.265Z,56.26
2022-12-02T03:58:56.955Z,56.32
2022-12-02T04:00:58.819Z,56.74
2022-12-02T04:03:00.951Z,56.25
2022-12-02T04:05:02.850Z,56.41
2022-12-02T04:07:04.559Z,56.45
2022-12-02T04:09:06.834Z,56.15
2022-12-02T04:11:08.653Z,56.49
2022-12-02T04:13:10.402Z,56.51
2022-12-02T04:15:11.977Z,56.40
2022-12-02T04:17:13.627Z,56.56
2022-12-02T04:19:15.450Z,56.25
2022-12-02T04:21:17.162Z,56.47
2022-12-02T04:23:19.238Z,56.48
2022-12-02T04:25:20.844Z,56.32
2022-12-02T04:27:22.501Z,56.68
2022-12-02T04:29:24.010Z,56.64
2022-12-02T04:31:25.736Z,56.25
2022-12-02T04:33:27.552Z,56.52
2022-12-02T04:35:29.273Z,56.42
2022-12-02T04:37:31.035Z,56.61
2022-12-02T04:39:32.540Z,55.96
2022-12-02T04:41:34.154Z,56.57
2022-12-02T04:43:35.835Z,56.65
2022-12-02T04:45:37.792Z,56.62
2022-12-02T04:47:39.526Z,56.34
2022-12-02T04:49:41.084Z,56.39
2022-12-02T04:51:42.800Z,56.54
2022-12-02T04:53:44.475Z,56.40
2022-12-02T04:55:47.030Z,56.52
2022-12-02T04:57:48.769Z,56.47
2022-12-02T04:59:50.350Z,56.74
2022-12-02T05:01:52.173Z,56.41
2022-12-02T05:03:53.864Z,56.27
2022-12-02T05:05:55.594Z,56.52
2022-12-02T05:07:57.429Z,56.46
2022-12-02T05:09:59.379Z,56.58
2022-12-02T05:12:01.184Z,56.61
2022-12-02T05:14:02.734Z,56.53
2022-12-02T05:16:04.825Z,56.38
2022-12-02T05:18:06.616Z,56.34
2022-12-02T05:20:08.711Z,56.37
2022-12-02T05:22:10.281Z,56.39
2022-12-02T05:24:12.323Z,56.34
2022-12-02T05:26:13.979Z,56.68
2022-12-02T05:28:15.629Z,56.55
2022-12-02T05:30:18.044Z,56.55
2022-12-02T05:32:19.625Z,56.51
2022-12-02T05:34:21.324Z,56.29
2022-12-02T05:36:23.152Z,56.53
2022-12-02T05:38:24.636Z,56.54
2022-12-02T05:40:26.641Z,56.46
2022-12-02T05:42:31.300Z,56.57
2022-12-02T05:44:39.352Z,56.58
2022-12-02T05:46:42.366Z,56.60
2022-12-02T05:48:45.761Z,56.71
2022-12-02T05:50:48.398Z,56.41
2022-12-02T05:52:50.319Z,56.75
2022-12-02T05:54:54.408Z,56.83
2022-12-02T05:56:58.776Z,56.76
2022-12-02T05:59:07.898Z,56.70
2022-12-02T06:01:21.826Z,56.69
2022-12-02T06:03:24.062Z,56.72
2022-12-02T06:05:31.161Z,56.71
2022-12-02T06:07:34.491Z,56.67
2022-12-02T06:09:36.446Z,56.76
2022-12-02T06:11:40.073Z,56.52
2022-12-02T06:13:45.988Z,56.64
2022-12-02T06:15:48.624Z,56.80
2022-12-02T06:17:52.532Z,57.02
2022-12-02T06:19:57.289Z,56.87
2022-12-02T06:22:02.632Z,56.86
2022-12-02T06:24:09.978Z,56.79
2022-12-02T06:26:19.750Z,56.74
2022-12-02T06:28:30.474Z,56.92
2022-12-02T06:30:33.311Z,56.80
2022-12-02T06:32:40.242Z,56.88
2022-12-02T06:34:43.859Z,56.81
2022-12-02T06:36:45.687Z,56.79
2022-12-02T06:39:00.278Z,56.91
2022-12-02T06:41:13.503Z,56.82
2022-12-02T06:43:25.715Z,56.85
2022-12-02T06:45:31.464Z,56.95
2022-12-02T06:47:33.120Z,56.93
2022-12-02T06:49:40.157Z,56.88
2022-12-02T06:51:42.475Z,56.99
2022-12-02T06:53:45.285Z,56.81
2022-12-02T06:55:47.256Z,56.97
2022-12-02T06:58:01.474Z,56.89
2022-12-02T07:00:04.925Z,56.99
2022-12-02T07:02:26.325Z,56.81
2022-12-02T07:04:34.121Z,56.84
2022-12-02T07:06:38.872Z,56.97
2022-12-02T07:08:40.443Z,56.94
2022-12-02T07:10:43.692Z,57.15
2022-12-02T07:12:47.151Z,57.02
2022-12-02T07:14:52.227Z,56.96
2022-12-02T07:17:01.120Z,56.98
2022-12-02T07:19:02.872Z,57.00
2022-12-02T07:21:04.656Z,57.03
2022-12-02T07:23:16.993Z,57.07
2022-12-02T07:25:24.334Z,57.19
2022-12-02T07:27:30.126Z,56.96
2022-12-02T07:29:31.697Z,57.08
2022-12-02T07:31:33.220Z,57.13
2022-12-02T07:33:34.944Z,56.69
2022-12-02T07:35:37.564Z,56.97
2022-12-02T07:37:39.507Z,56.80
2022-12-02T07:39:41.287Z,57.05
2022-12-02T07:41:43.139Z,56.97
2022-12-02T07:43:44.738Z,57.10
2022-12-02T07:45:46.669Z,56.92
2022-12-02T07:47:48.449Z,56.81
2022-12-02T07:49:50.038Z,57.16
2022-12-02T07:51:51.709Z,57.05
2022-12-02T07:53:53.587Z,57.04
2022-12-02T07:55:55.884Z,56.99
2022-12-02T07:57:59.129Z,57.22
2022-12-02T08:00:00.745Z,56.95
2022-12-02T08:02:04.513Z,57.26
2022-12-02T08:04:06.560Z,57.17
2022-12-02T08:06:08.255Z,57.15
2022-12-02T08:08:10.420Z,57.00
2022-12-02T08:10:12.746Z,57.20
2022-12-02T08:12:14.663Z,57.09
2022-12-02T08:14:16.455Z,57.17
2022-12-02T08:16:18.264Z,57.10
2022-12-02T08:18:20.222Z,56.94
2022-12-02T08:20:21.901Z,56.82
2022-12-02T08:22:23.384Z,57.02
2022-12-02T08:24:25.090Z,57.09
2022-12-02T08:26:26.676Z,57.18
2022-12-02T08:28:28.370Z,57.18
2022-12-02T08:30:30.360Z,57.11
2022-12-02T08:32:32.637Z,57.06
2022-12-02T08:34:34.498Z,57.19
2022-12-02T08:36:36.099Z,57.09
2022-12-02T08:38:38.525Z,57.18
2022-12-02T08:40:40.572Z,57.06
2022-12-02T08:42:42.704Z,57.39
2022-12-02T08:44:44.495Z,57.24
2022-12-02T08:46:50.912Z,57.23
2022-12-02T08:48:55.782Z,57.11
2022-12-02T08:50:57.852Z,57.12
2022-12-02T08:52:59.656Z,57.07
2022-12-02T08:55:01.375Z,57.07
2022-12-02T08:57:03.179Z,57.18
2022-12-02T08:59:04.974Z,57.18
2022-12-02T09:01:08.859Z,57.01
2022-12-02T09:03:11.043Z,56.83
2022-12-02T09:05:13.094Z,56.98
2022-12-02T09:07:14.799Z,57.26
2022-12-02T09:09:17.363Z,57.01
2022-12-02T09:11:19.881Z,56.92
2022-12-02T09:13:21.849Z,57.04
2022-12-02T09:15:23.943Z,57.06
2022-12-02T09:17:25.639Z,57.20
2022-12-02T09:19:27.130Z,56.90
2022-12-02T09:21:28.896Z,57.18
2022-12-02T09:23:30.655Z,57.04
2022-12-02T09:25:32.548Z,57.26
2022-12-02T09:27:34.840Z,57.13
2022-12-02T09:29:36.603Z,57.20
2022-12-02T09:31:38.231Z,57.20
2022-12-02T09:33:40.007Z,57.29
2022-12-02T09:35:44.821Z,57.16
2022-12-02T09:37:46.421Z,57.02
2022-12-02T09:39:48.554Z,57.40
2022-12-02T09:41:50.202Z,57.15
2022-12-02T09:43:51.790Z,57.24
2022-12-02T09:45:57.726Z,56.96
2022-12-02T09:48:02.851Z,57.44
2022-12-02T09:50:06.404Z,57.28
2022-12-02T09:52:23.972Z,57.24
2022-12-02T09:54:30.165Z,57.25
2022-12-02T09:56:31.841Z,57.18
2022-12-02T09:58:33.529Z,57.28
2022-12-02T10:00:35.270Z,57.19
2022-12-02T10:02:42.333Z,57.22
2022-12-02T10:04:44.063Z,57.24
2022-12-02T10:06:45.879Z,57.11
2022-12-02T10:08:47.705Z,57.08
2022-12-02T10:10:49.979Z,57.03
2022-12-02T10:12:58.617Z,56.98
2022-12-02T10:15:02.648Z,57.09
2022-12-02T10:17:17.105Z,57.11
2022-12-02T10:19:19.902Z,57.03
2022-12-02T10:21:24.465Z,57.21
2022-12-02T10:23:27.694Z,56.91
2022-12-02T10:25:30.992Z,57.26
2022-12-02T10:27:32.937Z,57.29
2022-12-02T10:29:35.364Z,57.07
2022-12-02T10:31:37.368Z,57.01
2022-12-02T10:33:50.923Z,57.24
2022-12-02T10:35:54.383Z,57.18
2022-12-02T10:37:56.252Z,57.14
2022-12-02T10:40:06.953Z,57.32
2022-12-02T10:42:22.091Z,56.94
2022-12-02T10:44:24.087Z,57.17
2022-12-02T10:46:26.083Z,57.03
2022-12-02T10:48:27.808Z,57.04
2022-12-02T10:50:32.718Z,56.99
2022-12-02T10:52:58.234Z,57.19
2022-12-02T10:55:02.415Z,57.14
2022-12-02T10:57:04.785Z,57.03
2022-12-02T10:59:13.909Z,57.05
2022-12-02T11:01:16.116Z,57.13
2022-12-02T11:03:20.217Z,56.97
2022-12-02T11:05:22.885Z,57.01
2022-12-02T11:07:26.393Z,57.06
2022-12-02T11:09:40.108Z,57.00
2022-12-02T11:11:42.519Z,57.08
2022-12-02T11:14:37.651Z,57.11
2022-12-02T11:16:53.478Z,57.08
2022-12-02T11:19:22.958Z,57.15
2022-12-02T11:21:29.634Z,57.32
2022-12-02T11:23:32.432Z,57.16
2022-12-02T11:25:43.439Z,57.07
2022-12-02T11:28:18.535Z,57.14
2022-12-02T11:30:20.292Z,57.11
2022-12-02T11:32:22.010Z,57.22
2022-12-02T11:34:53.942Z,57.13
2022-12-02T11:37:34.564Z,57.26
2022-12-02T11:39:42.242Z,57.06
2022-12-02T11:41:50.033Z,57.27
2022-12-02T11:43:54.725Z,57.08
2022-12-02T11:46:01.091Z,57.09
2022-12-02T11:48:15.930Z,57.23
2022-12-02T11:50:20.270Z,57.10
2022-12-02T11:52:24.941Z,57.41
2022-12-02T11:54:30.142Z,57.16
2022-12-02T11:56:39.836Z,57.16
2022-12-02T11:58:44.899Z,57.43
2022-12-02T12:01:05.519Z,57.29
2022-12-02T12:03:20.809Z,57.01
2022-12-02T12:05:22.975Z,57.29
2022-12-02T12:07:24.738Z,57.09
2022-12-02T12:09:29.472Z,57.19
2022-12-02T12:11:37.611Z,57.36
2022-12-02T12:14:03.409Z,57.25
2022-12-02T12:16:05.096Z,57.21
2022-12-02T12:18:07.048Z,57.27
2022-12-02T12:20:14.652Z,57.23
2022-12-02T12:22:30.613Z,57.30
2022-12-02T12:24:33.467Z,57.31
2022-12-02T12:26:35.247Z,57.15
2022-12-02T12:28:38.340Z,57.44
2022-12-02T12:30:44.769Z,57.26
2022-12-02T12:32:46.773Z,57.30
2022-12-02T12:34:54.588Z,57.18
2022-12-02T12:36:56.784Z,57.36
2022-12-02T12:39:02.162Z,57.36
2022-12-02T12:41:03.832Z,57.52
2022-12-02T12:43:05.664Z,57.45
2022-12-02T12:45:07.729Z,57.45
2022-12-02T12:47:09.356Z,57.43
2022-12-02T12:49:10.937Z,57.55
2022-12-02T12:51:15.550Z,57.48
2022-12-02T12:53:17.241Z,57.41
2022-12-02T12:55:19.251Z,57.63
2022-12-02T12:57:21.264Z,57.42
2022-12-02T12:59:22.904Z,57.61
2022-12-02T13:01:25.190Z,57.45
2022-12-02T13:03:27.097Z,57.58
2022-12-02T13:05:31.425Z,57.52
2022-12-02T13:07:33.491Z,57.51
2022-12-02T13:09:35.377Z,57.59
2022-12-02T13:11:36.935Z,57.52
2022-12-02T13:13:38.583Z,57.81
2022-12-02T13:15:40.545Z,57.54
2022-12-02T13:17:48.504Z,57.43
2022-12-02T13:19:50.867Z,57.52
2022-12-02T13:21:52.507Z,57.60
2022-12-02T13:23:55.175Z,57.64
2022-12-02T13:25:56.856Z,57.25
2022-12-02T13:27:58.680Z,57.60
2022-12-02T13:30:00.400Z,57.46
2022-12-02T13:32:02.019Z,57.33
2022-12-02T13:34:03.801Z,57.50
2022-12-02T13:36:08.720Z,57.50
2022-12-02T13:38:10.314Z,57.74
2022-12-02T13:40:20.498Z,57.50
2022-12-02T13:42:22.122Z,57.54
2022-12-02T13:44:23.702Z,57.45
2022-12-02T13:46:25.325Z,57.48
2022-12-02T13:48:26.987Z,57.41
2022-12-02T13:50:31.106Z,57.47
2022-12-02T13:52:32.704Z,57.38
2022-12-02T13:54:34.445Z,57.49
2022-12-02T13:56:36.432Z,57.54
2022-12-02T13:58:39.730Z,57.43
2022-12-02T14:00:41.441Z,57.29
2022-12-02T14:02:43.246Z,57.37
2022-12-02T14:04:44.878Z,57.33
2022-12-02T14:06:46.400Z,57.35
2022-12-02T14:08:48.311Z,57.53
2022-12-02T14:10:50.085Z,57.39
2022-12-02T14:12:53.907Z,57.47
2022-12-02T14:14:55.647Z,57.24
2022-12-02T14:16:57.498Z,57.28
2022-12-02T14:18:59.125Z,57.44
2022-12-02T14:21:00.874Z,57.45
2022-12-02T14:23:02.455Z,57.36
2022-12-02T14:25:04.388Z,57.42
2022-12-02T14:27:07.274Z,57.54
2022-12-02T14:29:09.114Z,57.38
2022-12-02T14:31:20.229Z,57.44
2022-12-02T14:33:41.712Z,57.63
2022-12-02T14:35:48.631Z,57.48
2022-12-02T14:37:52.924Z,57.29
2022-12-02T14:39:55.059Z,57.26
2022-12-02T14:41:56.718Z,57.36
2022-12-02T14:43:58.510Z,57.34
2022-12-02T14:46:00.628Z,57.28
2022-12-02T14:48:02.241Z,57.26
2022-12-02T14:50:04.457Z,57.24
2022-12-02T14:52:06.307Z,57.30
2022-12-02T14:54:10.720Z,57.28
2022-12-02T14:56:15.783Z,57.25
2022-12-02T14:58:18.692Z,57.49
2022-12-02T15:00:21.380Z,56.94
2022-12-02T15:02:24.452Z,57.22
2022-12-02T15:04:28.929Z,57.22
2022-12-02T15:06:33.890Z,57.24
2022-12-02T15:08:36.039Z,57.25
2022-12-02T15:10:41.668Z,57.37
2022-12-02T15:12:49.871Z,57.49
2022-12-02T15:14:52.014Z,57.23
2022-12-02T15:16:53.800Z,57.34
2022-12-02T15:18:58.688Z,57.32
2022-12-02T15:21:00.584Z,57.64
2022-12-02T15:23:03.042Z,57.56
2022-12-02T15:25:05.418Z,57.47
2022-12-02T15:27:06.904Z,57.63
2022-12-02T15:29:10.104Z,57.67
2022-12-02T15:31:12.859Z,58.04
2022-12-02T15:33:14.773Z,57.40
2022-12-02T15:35:16.464Z,57.70
2022-12-02T15:37:21.237Z,57.63
2022-12-02T15:39:22.789Z,57.60
2022-12-02T15:41:27.304Z,57.59
2022-12-02T15:43:28.965Z,57.57
2022-12-02T15:45:30.842Z,57.61
2022-12-02T15:47:33.791Z,57.56
2022-12-02T15:49:35.219Z,57.51
2022-12-02T15:51:37.781Z,57.66
2022-12-02T15:53:39.703Z,57.67
2022-12-02T15:55:41.544Z,57.75
2022-12-02T15:57:45.526Z,58.04
2022-12-02T15:59:47.095Z,57.57
2022-12-02T16:01:52.018Z,57.83
2022-12-02T16:03:53.848Z,57.71
2022-12-02T16:06:01.621Z,57.50
2022-12-02T16:08:09.479Z,57.80
2022-12-02T16:10:14.047Z,57.70
2022-12-02T16:12:19.037Z,57.80
2022-12-02T16:14:20.961Z,57.50
2022-12-02T16:16:22.786Z,57.73
2022-12-02T16:18:27.041Z,57.65
2022-12-02T16:20:31.769Z,57.60
2022-12-02T16:22:35.261Z,57.94
2022-12-02T16:24:37.242Z,57.70
2022-12-02T16:26:44.984Z,57.94
2022-12-02T16:28:47.442Z,57.92
2022-12-02T16:30:49.140Z,57.48
2022-12-02T16:32:52.008Z,57.95
2022-12-02T16:34:54.045Z,57.75
2022-12-02T16:36:55.853Z,57.70
2022-12-02T16:38:57.958Z,57.85
2022-12-02T16:40:59.858Z,57.57
2022-12-02T16:43:02.034Z,58.02
2022-12-02T16:45:04.274Z,57.57
2022-12-02T16:47:05.911Z,57.93
2022-12-02T16:49:11.898Z,57.84
2022-12-02T16:51:13.955Z,57.54
2022-12-02T16:53:15.698Z,58.02
2022-12-02T16:55:17.450Z,57.77
2022-12-02T16:57:19.032Z,58.06
2022-12-02T16:59:22.248Z,57.97
2022-12-02T17:01:23.964Z,57.82
2022-12-02T17:03:25.713Z,57.67
2022-12-02T17:05:30.306Z,58.00
2022-12-02T17:07:32.251Z,57.90
2022-12-02T17:09:33.923Z,57.75
2022-12-02T17:11:38.515Z,57.94
2022-12-02T17:13:44.885Z,57.65
2022-12-02T17:15:46.764Z,58.22
2022-12-02T17:17:48.612Z,57.92
2022-12-02T17:19:50.480Z,58.04
2022-12-02T17:21:58.416Z,58.07
2022-12-02T17:24:05.518Z,57.98
2022-12-02T17:26:08.640Z,58.30
2022-12-02T17:28:13.188Z,57.91
2022-12-02T17:30:17.984Z,57.78
2022-12-02T17:32:19.826Z,58.07
2022-12-02T17:34:21.552Z,58.07
2022-12-02T17:36:23.163Z,58.31
2022-12-02T17:38:25.506Z,57.78
2022-12-02T17:40:30.552Z,57.83
2022-12-02T17:42:32.276Z,58.13
2022-12-02T17:44:34.166Z,57.96
2022-12-02T17:46:36.157Z,57.78
2022-12-02T17:48:37.789Z,58.21
2022-12-02T17:50:39.441Z,58.29
2022-12-02T17:52:41.215Z,58.08
2022-12-02T17:54:42.935Z,58.10
2022-12-02T17:56:44.512Z,57.97
2022-12-02T17:58:49.116Z,58.19
2022-12-02T18:00:53.823Z,58.28
2022-12-02T18:02:55.771Z,58.29
2022-12-02T18:04:58.151Z,58.10
2022-12-02T18:07:01.526Z,58.18
2022-12-02T18:09:05.711Z,58.01
2022-12-02T18:11:07.748Z,57.96
2022-12-02T18:13:09.305Z,57.98
2022-12-02T18:15:19.170Z,58.32
2022-12-02T18:17:20.775Z,58.08
2022-12-02T18:19:22.490Z,58.31
2022-12-02T18:21:25.207Z,58.41
2022-12-02T18:23:28.401Z,57.78
2022-12-02T18:25:30.214Z,58.38
2022-12-02T18:27:34.287Z,58.31
2022-12-02T18:29:39.198Z,57.88
2022-12-02T18:31:43.293Z,57.88
2022-12-02T18:33:45.008Z,58.09
2022-12-02T18:35:46.710Z,58.11
2022-12-02T18:37:49.016Z,58.14
2022-12-02T18:39:50.500Z,57.68
2022-12-02T18:41:52.146Z,58.28
2022-12-02T18:43:53.679Z,58.32
2022-12-02T18:45:55.835Z,58.28
2022-12-02T18:47:57.496Z,58.21
2022-12-02T18:49:59.212Z,57.92
2022-12-02T18:52:00.955Z,57.90
2022-12-02T18:54:02.577Z,58.00
2022-12-02T18:56:04.823Z,57.98
2022-12-02T18:58:06.378Z,57.93
2022-12-02T19:00:13.218Z,58.24
2022-12-02T19:02:17.819Z,58.32
2022-12-02T19:04:19.541Z,58.13
2022-12-02T19:06:21.187Z,58.32
2022-12-02T19:08:22.842Z,57.94
2022-12-02T19:10:24.582Z,57.74
2022-12-02T19:12:26.741Z,58.11
2022-12-02T19:14:28.912Z,58.04
2022-12-02T19:16:30.719Z,58.20
2022-12-02T19:18:35.173Z,58.33
2022-12-02T19:20:36.970Z,57.96
2022-12-02T19:22:39.287Z,58.51
2022-12-02T19:24:43.436Z,58.15
2022-12-02T19:26:45.161Z,58.11
2022-12-02T19:28:46.784Z,57.85
2022-12-02T19:30:48.575Z,58.02
2022-12-02T19:32:50.220Z,58.27
2022-12-02T19:34:52.046Z,58.07
2022-12-02T19:36:56.944Z,58.00
2022-12-02T19:38:58.656Z,57.96
2022-12-02T19:41:00.443Z,58.40
2022-12-02T19:43:01.972Z,58.03
2022-12-02T19:45:06.990Z,58.21
2022-12-02T19:47:11.214Z,58.25
2022-12-02T19:49:13.109Z,58.10
2022-12-02T19:51:14.879Z,58.22
2022-12-02T19:53:17.039Z,58.65
2022-12-02T19:55:18.620Z,58.23
2022-12-02T19:57:22.302Z,58.04
2022-12-02T19:59:23.878Z,58.65
2022-12-02T20:01:25.883Z,58.07
2022-12-02T20:03:27.760Z,58.61
2022-12-02T20:05:29.744Z,58.37
2022-12-02T20:07:31.397Z,58.08
2022-12-02T20:09:33.202Z,58.26
2022-12-02T20:11:37.699Z,58.20
2022-12-02T20:13:39.353Z,58.23
2022-12-02T20:15:41.222Z,58.49
2022-12-02T20:17:43.255Z,58.31
2022-12-02T20:19:44.831Z,58.34
2022-12-02T20:21:46.553Z,58.22
2022-12-02T20:23:48.139Z,58.55
2022-12-02T20:25:50.248Z,58.12
2022-12-02T20:27:54.658Z,58.04
2022-12-02T20:29:56.583Z,58.06
2022-12-02T20:31:58.642Z,58.56
2022-12-02T20:34:00.339Z,58.46
2022-12-02T20:36:02.134Z,58.44
2022-12-02T20:38:03.801Z,58.41
2022-12-02T20:40:06.407Z,58.05
2022-12-02T20:42:08.543Z,58.43
2022-12-02T20:44:10.190Z,58.40
2022-12-02T20:46:12.046Z,58.29
2022-12-02T20:48:13.583Z,58.47
2022-12-02T20:50:15.185Z,58.27
2022-12-02T20:52:18.409Z,58.58
2022-12-02T20:54:20.110Z,58.58
2022-12-02T20:56:21.893Z,58.14
2022-12-02T20:58:23.542Z,58.07
2022-12-02T21:00:25.689Z,58.25
2022-12-02T21:02:27.734Z,58.63
2022-12-02T21:04:29.408Z,58.13
2022-12-02T21:06:31.521Z,58.32
2022-12-02T21:08:33.200Z,58.24
2022-12-02T21:10:35.087Z,58.71
2022-12-02T21:12:36.841Z,58.30
2022-12-02T21:14:38.585Z,58.26
2022-12-02T21:16:43.416Z,58.48
2022-12-02T21:18:45.396Z,58.16
2022-12-02T21:20:49.589Z,58.21
2022-12-02T21:22:51.142Z,58.48
2022-12-02T21:24:53.590Z,58.31
2022-12-02T21:26:55.435Z,58.60
2022-12-02T21:28:56.984Z,58.64
2022-12-02T21:30:59.112Z,58.25
2022-12-02T21:33:03.180Z,58.75
2022-12-02T21:35:09.911Z,58.28
2022-12-02T21:37:11.877Z,58.00
2022-12-02T21:39:16.668Z,58.42
2022-12-02T21:41:18.306Z,58.72
2022-12-02T21:43:20.000Z,58.29
2022-12-02T21:45:21.724Z,58.07
2022-12-02T21:47:24.335Z,58.38
2022-12-02T21:49:26.262Z,58.36
2022-12-02T21:51:30.645Z,58.45
2022-12-02T21:53:32.340Z,58.61
2022-12-02T21:55:33.789Z,58.51
2022-12-02T21:57:35.637Z,58.81
2022-12-02T21:59:37.550Z,58.55
2022-12-02T22:01:39.236Z,58.59
2022-12-02T22:03:41.074Z,58.55
2022-12-02T22:05:45.378Z,58.63
2022-12-02T22:07:52.255Z,58.48
2022-12-02T22:09:56.477Z,58.40
2022-12-02T22:11:58.242Z,58.51
2022-12-02T22:14:04.109Z,58.44
2022-12-02T22:16:05.793Z,58.45
2022-12-02T22:18:07.736Z,58.34
2022-12-02T22:20:10.701Z,58.43
2022-12-02T22:22:12.393Z,58.33
2022-12-02T22:24:14.361Z,58.53
2022-12-02T22:26:20.059Z,58.82
2022-12-02T22:28:22.323Z,58.87
2022-12-02T22:30:23.961Z,58.40
2022-12-02T22:32:25.650Z,58.74
2022-12-02T22:34:30.319Z,58.90
2022-12-02T22:36:32.379Z,58.31
2022-12-02T22:38:37.109Z,58.49
2022-12-02T22:40:38.868Z,58.65
2022-12-02T22:42:40.457Z,58.29
2022-12-02T22:44:42.116Z,58.32
2022-12-02T22:46:43.767Z,58.32
2022-12-02T22:48:45.331Z,58.41
2022-12-02T22:50:49.697Z,58.55
2022-12-02T22:52:51.362Z,58.40
2022-12-02T22:54:53.347Z,58.54
2022-12-02T22:56:55.127Z,58.58
2022-12-02T22:58:57.042Z,58.48
2022-12-02T23:01:00.388Z,58.87
2022-12-02T23:03:02.491Z,58.92
2022-12-02T23:05:04.696Z,58.82
2022-12-02T23:07:06.230Z,58.78
2022-12-02T23:09:07.905Z,58.62
2022-12-02T23:11:09.729Z,58.54
2022-12-02T23:13:11.311Z,58.89
2022-12-02T23:15:35.633Z,58.64
2022-12-02T23:17:34.881Z,58.70
2022-12-02T23:19:36.738Z,58.69
2022-12-02T23:21:38.464Z,58.59
2022-12-02T23:23:40.293Z,58.64
2022-12-02T23:25:47.103Z,58.66
2022-12-02T23:27:48.693Z,58.71
2022-12-02T23:29:50.555Z,58.88
2022-12-02T23:31:52.179Z,58.83
2022-12-02T23:33:53.729Z,58.81
2022-12-02T23:35:55.399Z,58.68
2022-12-02T23:37:58.178Z,58.48
2022-12-02T23:39:59.861Z,58.49
2022-12-02T23:42:01.468Z,58.85
2022-12-02T23:44:06.141Z,58.49
2022-12-02T23:46:07.806Z,58.66
2022-12-02T23:48:10.175Z,58.67
2022-12-02T23:50:12.265Z,58.50
2022-12-02T23:52:13.877Z,58.51
2022-12-02T23:54:20.493Z,58.21
2022-12-02T23:56:22.047Z,58.59
2022-12-02T23:58:23.607Z,58.76
